Time;durP1;ratioP1;P1;durP2;ratioP2;P2;SDS_P1;SDS_P2;PMS_P1;PMS_P2;Temp;Humidity;BMP_temperature;BMP_pressure;BME280_temperature;BME280_humidity;BME280_pressure;Samples;Min_cycle;Max_cycle;Signal;HPM_P1;HPM_P2
2023/06/21 00:00:31;;;;;;;13.60;8.93;;;;;;;17.77;89.57;95056.53;5015419;28;20194;-82
2023/06/21 00:03:00;;;;;;;12.40;8.38;;;;;;;17.95;90.02;95082.84;5015400;28;20548;-83
2023/06/21 00:05:26;;;;;;;11.95;8.70;;;;;;;17.49;89.84;95015.75;5015371;28;20550;-83
2023/06/21 00:07:53;;;;;;;13.85;9.32;;;;;;;17.85;89.85;95072.88;5015263;28;20168;-82
2023/06/21 00:10:23;;;;;;;16.10;9.35;;;;;;;17.85;90.12;95074.72;5015372;28;20149;-82
2023/06/21 00:12:50;;;;;;;17.33;9.52;;;;;;;17.79;90.19;95071.22;5015764;28;20160;-82
2023/06/21 00:15:15;;;;;;;15.20;8.90;;;;;;;17.73;90.10;95058.09;5015418;28;20176;-83
2023/06/21 00:17:40;;;;;;;14.20;8.75;;;;;;;17.68;89.92;95051.66;5015684;28;20221;-82
2023/06/21 00:20:09;;;;;;;10.50;8.07;;;;;;;17.77;90.03;95083.16;5014936;28;20228;-83
2023/06/21 00:22:35;;;;;;;12.13;8.20;;;;;;;17.75;90.43;95080.75;5015651;28;20164;-83
2023/06/21 00:25:01;;;;;;;15.35;10.25;;;;;;;17.71;90.60;95077.81;5015003;28;20153;-82
2023/06/21 00:27:27;;;;;;;14.68;9.07;;;;;;;17.26;90.58;95010.69;5029754;28;20179;-82
2023/06/21 00:29:52;;;;;;;16.88;8.52;;;;;;;17.43;90.83;95035.38;5014300;28;20246;-83
2023/06/21 00:32:17;;;;;;;18.25;9.45;;;;;;;17.62;90.86;95070.50;5013534;28;20180;-82
2023/06/21 00:34:46;;;;;;;16.35;9.68;;;;;;;17.52;91.13;95068.50;5013067;28;20179;-82
2023/06/21 00:37:12;;;;;;;16.30;9.02;;;;;;;17.47;91.24;95065.75;5013366;28;20721;-82
2023/06/21 00:39:37;;;;;;;18.45;9.45;;;;;;;17.50;90.73;95069.78;5014260;28;20299;-82
2023/06/21 00:42:03;;;;;;;19.25;9.95;;;;;;;17.51;90.87;95071.41;5014733;28;20164;-82
2023/06/21 00:44:28;;;;;;;15.75;9.35;;;;;;;17.43;90.65;95054.00;5014796;28;20160;-83
2023/06/21 00:46:53;;;;;;;12.77;8.85;;;;;;;17.43;90.55;95053.19;5014799;28;20184;-82
2023/06/21 00:49:19;;;;;;;14.90;8.90;;;;;;;17.47;90.35;95068.41;5013996;28;20223;-82
2023/06/21 00:51:45;;;;;;;14.95;9.63;;;;;;;17.43;90.95;95075.31;5012834;28;20184;-82
2023/06/21 00:54:16;;;;;;;13.57;8.77;;;;;;;17.22;91.15;95038.84;5013609;28;20218;-82
2023/06/21 00:56:45;;;;;;;14.00;9.32;;;;;;;17.44;91.15;95070.78;5013986;28;20177;-82
2023/06/21 00:59:11;;;;;;;13.13;8.85;;;;;;;17.20;90.96;95041.75;5012999;28;20239;-83
2023/06/21 01:01:37;;;;;;;11.73;8.52;;;;;;;17.41;91.03;95082.72;5029742;28;20188;-82
2023/06/21 01:04:08;;;;;;;13.65;9.30;;;;;;;17.22;91.22;95057.44;5014541;28;20175;-82
2023/06/21 01:06:52;;;;;;;17.48;9.18;;;;;;;17.29;91.67;95076.72;5013532;28;20610;-82
2023/06/21 01:09:36;;;;;;;15.60;9.82;;;;;;;17.30;91.40;95075.66;5013761;28;20572;-82
2023/06/21 01:12:32;;;;;;;17.77;9.60;;;;;;;17.31;91.49;95071.94;5012277;28;20180;-82
2023/06/21 01:15:19;;;;;;;15.95;9.88;;;;;;;17.27;91.40;95066.31;5012378;28;20188;-83
2023/06/21 01:17:51;;;;;;;13.43;9.07;;;;;;;16.98;91.56;95020.44;5013739;28;20176;-83
2023/06/21 01:20:24;;;;;;;13.20;9.30;;;;;;;17.29;91.42;95069.56;5013998;28;20220;-83
2023/06/21 01:22:55;;;;;;;33.33;11.07;;;;;;;17.24;91.67;95074.00;5014503;28;20240;-82
2023/06/21 01:25:46;;;;;;;29.55;12.07;;;;;;;17.17;91.61;95065.38;5013951;28;20239;-82
2023/06/21 01:28:48;;;;;;;23.42;10.02;;;;;;;17.17;91.97;95070.72;5011851;28;20188;-82
2023/06/21 01:31:16;;;;;;;19.92;10.23;;;;;;;16.93;91.76;95032.88;5013756;28;20160;-83
2023/06/21 01:33:42;;;;;;;22.13;10.70;;;;;;;16.75;91.77;95011.91;5012870;28;20173;-82
2023/06/21 01:36:11;;;;;;;19.00;10.02;;;;;;;17.09;91.99;95077.25;5013139;28;20231;-82
2023/06/21 01:38:37;;;;;;;19.65;11.10;;;;;;;16.83;91.95;95030.09;5012052;28;20230;-82
2023/06/21 01:41:03;;;;;;;16.55;10.40;;;;;;;17.13;91.63;95080.22;5013389;28;20295;-82
2023/06/21 01:43:30;;;;;;;18.55;11.10;;;;;;;17.08;91.37;95066.84;5013722;28;20191;-82
2023/06/21 01:45:58;;;;;;;19.70;10.07;;;;;;;16.92;91.27;95058.69;5014027;28;20181;-82
2023/06/21 01:48:24;;;;;;;16.70;10.30;;;;;;;17.10;91.42;95081.53;5013548;28;20630;-82
2023/06/21 01:50:51;;;;;;;20.50;10.77;;;;;;;17.00;91.20;95075.25;5013366;28;20192;-81
2023/06/21 01:53:19;;;;;;;20.33;11.05;;;;;;;17.09;91.52;95095.06;5012688;28;20248;-81
2023/06/21 01:55:48;;;;;;;14.52;10.30;;;;;;;17.08;91.48;95090.81;5012552;28;20191;-80
2023/06/21 01:58:15;;;;;;;18.80;10.98;;;;;;;16.97;91.61;95077.34;5012717;28;20259;-80
2023/06/21 02:00:41;;;;;;;16.35;10.93;;;;;;;16.90;91.78;95062.63;5012599;28;20561;-80
2023/06/21 02:03:09;;;;;;;17.27;10.80;;;;;;;17.04;91.40;95087.03;5012420;28;20164;-79
2023/06/21 02:05:35;;;;;;;14.90;10.63;;;;;;;17.02;91.62;95079.28;5013005;28;20310;-79
2023/06/21 02:08:04;;;;;;;16.05;10.68;;;;;;;17.01;91.52;95082.19;5013407;28;20244;-79
2023/06/21 02:10:30;;;;;;;17.48;10.55;;;;;;;17.00;92.07;95080.59;5013661;28;20172;-81
2023/06/21 02:12:56;;;;;;;13.93;10.77;;;;;;;16.98;91.65;95078.16;5013271;28;20180;-81
2023/06/21 02:15:22;;;;;;;13.05;9.15;;;;;;;16.87;91.46;95058.59;5013909;28;20168;-81
2023/06/21 02:17:49;;;;;;;13.98;9.57;;;;;;;16.91;91.62;95078.34;5013427;28;20168;-81
2023/06/21 02:20:16;;;;;;;15.23;10.05;;;;;;;16.94;91.81;95085.84;5013140;28;20200;-80
2023/06/21 02:22:42;;;;;;;15.38;9.55;;;;;;;16.91;92.00;95081.00;5012599;28;20187;-80
2023/06/21 02:25:09;;;;;;;14.60;9.68;;;;;;;16.86;91.89;95074.81;5012235;28;20168;-80
2023/06/21 02:27:34;;;;;;;16.02;9.35;;;;;;;16.67;91.88;95054.84;5011081;28;20570;-80
2023/06/21 02:30:00;;;;;;;15.52;9.52;;;;;;;16.76;91.59;95078.13;5012329;28;20172;-80
2023/06/21 02:32:25;;;;;;;13.68;9.30;;;;;;;16.81;91.69;95082.69;5012153;28;20160;-80
2023/06/21 02:34:51;;;;;;;12.88;9.25;;;;;;;16.68;91.80;95075.06;5012551;28;20156;-80
2023/06/21 02:37:16;;;;;;;11.30;9.52;;;;;;;16.79;91.81;95100.75;5012750;28;20544;-80
2023/06/21 02:39:42;;;;;;;14.38;8.75;;;;;;;16.77;92.22;95094.88;5012803;28;20190;-80
2023/06/21 02:42:07;;;;;;;14.07;8.73;;;;;;;16.76;92.53;95104.72;5012749;28;20152;-80
2023/06/21 02:44:33;;;;;;;18.70;9.57;;;;;;;16.77;92.34;95109.00;5011995;28;20185;-80
2023/06/21 02:46:59;;;;;;;15.18;9.95;;;;;;;16.74;92.37;95114.78;5011830;28;20203;-80
2023/06/21 02:49:25;;;;;;;14.93;9.27;;;;;;;16.72;92.81;95113.41;5011751;28;20185;-80
2023/06/21 02:51:50;;;;;;;13.35;9.18;;;;;;;16.61;92.42;95099.13;5012493;28;20171;-80
2023/06/21 02:54:16;;;;;;;15.43;9.93;;;;;;;16.72;92.14;95121.38;5012362;28;20212;-80
2023/06/21 02:56:44;;;;;;;15.27;9.35;;;;;;;16.53;92.38;95088.88;5012776;28;20157;-80
2023/06/21 02:59:11;;;;;;;18.27;9.25;;;;;;;16.77;92.34;95129.44;5011424;28;20197;-82
2023/06/21 03:01:37;;;;;;;18.83;9.88;;;;;;;16.77;92.43;95124.94;5011544;28;20176;-81
2023/06/21 03:04:02;;;;;;;12.15;9.10;;;;;;;16.68;92.41;95102.47;5011753;28;20530;-81
2023/06/21 03:06:29;;;;;;;13.40;9.15;;;;;;;16.79;92.32;95128.13;5012015;28;20188;-81
2023/06/21 03:08:58;;;;;;;16.48;9.10;;;;;;;16.81;92.46;95130.56;5011659;28;20184;-81
2023/06/21 03:11:50;;;;;;;15.70;8.82;;;;;;;16.82;92.36;95132.97;5009232;28;20176;-81
2023/06/21 03:14:15;;;;;;;13.98;8.88;;;;;;;16.69;92.30;95108.59;5010032;28;20649;-81
2023/06/21 03:16:41;;;;;;;11.32;8.38;;;;;;;16.74;92.14;95114.78;5011704;28;20257;-81
2023/06/21 03:19:08;;;;;;;12.00;9.32;;;;;;;16.90;92.04;95137.09;5012406;28;20216;-81
2023/06/21 03:21:34;;;;;;;14.85;9.35;;;;;;;16.67;92.10;95090.22;5010966;28;20196;-81
2023/06/21 03:23:59;;;;;;;16.42;8.55;;;;;;;16.96;92.05;95139.56;5011396;28;20164;-81
2023/06/21 03:26:24;;;;;;;16.90;9.32;;;;;;;17.00;92.05;95128.47;5011555;28;20173;-79
2023/06/21 03:28:50;;;;;;;13.45;8.65;;;;;;;17.04;92.35;95129.59;5011319;28;21834;-79
2023/06/21 03:31:15;;;;;;;12.75;8.63;;;;;;;17.08;92.05;95120.88;5010987;28;20182;-79
2023/06/21 03:33:40;;;;;;;15.07;9.32;;;;;;;17.25;92.69;95136.81;5011298;28;20548;-80
2023/06/21 03:36:06;;;;;;;11.50;9.65;;;;;;;17.27;92.32;95118.75;5011080;28;20167;-80
2023/06/21 03:38:31;;;;;;;12.05;8.77;;;;;;;17.41;92.18;95130.63;5011001;28;20176;-80
2023/06/21 03:40:57;;;;;;;11.05;8.90;;;;;;;17.56;92.01;95141.47;5011202;28;20204;-79
2023/06/21 03:43:22;;;;;;;15.90;9.23;;;;;;;17.67;91.88;95134.44;5011218;28;20177;-79
2023/06/21 03:45:48;;;;;;;12.27;8.90;;;;;;;17.82;91.06;95134.63;5010922;28;20181;-83
2023/06/21 03:48:13;;;;;;;13.70;9.27;;;;;;;17.82;90.81;95113.31;5011103;28;21058;-80
2023/06/21 03:50:38;;;;;;;13.77;8.40;;;;;;;18.06;90.21;95140.50;5011072;28;20177;-81
2023/06/21 03:53:04;;;;;;;11.70;9.15;;;;;;;17.91;89.81;95103.81;5010786;28;20263;-81
2023/06/21 03:55:29;;;;;;;13.00;9.00;;;;;;;18.21;89.90;95146.00;5010879;28;20181;-80
2023/06/21 03:57:55;;;;;;;14.95;8.73;;;;;;;18.37;89.49;95144.28;5010834;28;20200;-80
2023/06/21 04:00:20;;;;;;;17.27;8.50;;;;;;;18.50;88.85;95143.09;5010830;28;20214;-78
2023/06/21 04:02:46;;;;;;;12.75;9.30;;;;;;;18.59;88.54;95136.25;5010902;28;20176;-79
2023/06/21 04:05:11;;;;;;;12.15;8.68;;;;;;;18.76;87.50;95143.09;5010905;28;20176;-80
2023/06/21 04:07:40;;;;;;;16.30;9.35;;;;;;;18.97;87.36;95159.22;5010745;28;20172;-80
2023/06/21 04:10:06;;;;;;;17.55;9.82;;;;;;;19.16;86.38;95160.44;5010901;28;20613;-80
2023/06/21 04:12:32;;;;;;;13.88;9.27;;;;;;;19.27;85.98;95159.47;5009849;28;20239;-79
2023/06/21 04:15:00;;;;;;;18.05;9.70;;;;;;;19.34;85.14;95145.88;5011177;28;20180;-80
2023/06/21 04:17:27;;;;;;;17.08;10.35;;;;;;;19.65;84.76;95168.22;5011073;28;20180;-79
2023/06/21 04:19:55;;;;;;;16.00;10.02;;;;;;;19.77;84.38;95169.66;5010323;28;20193;-80
2023/06/21 04:22:23;;;;;;;13.23;8.90;;;;;;;19.69;82.96;95122.06;5010490;28;20573;-81
2023/06/21 04:24:49;;;;;;;13.57;9.35;;;;;;;19.97;82.18;95150.22;5009705;28;20260;-81
2023/06/21 04:27:14;;;;;;;13.82;8.95;;;;;;;20.31;82.58;95180.00;5011715;28;20247;-80
2023/06/21 04:29:40;;;;;;;19.35;10.30;;;;;;;20.45;80.49;95178.47;5014025;28;20264;-80
2023/06/21 04:32:08;;;;;;;18.13;9.75;;;;;;;20.59;80.54;95184.09;5013896;28;20227;-79
2023/06/21 04:34:33;;;;;;;14.27;9.43;;;;;;;20.75;80.66;95182.28;5013562;28;20174;-78
2023/06/21 04:37:05;;;;;;;19.20;10.00;;;;;;;20.97;80.44;95172.09;5013169;28;20180;-78
2023/06/21 04:39:30;;;;;;;15.50;9.50;;;;;;;21.15;80.06;95176.13;5013715;28;20741;-79
2023/06/21 04:41:58;;;;;;;14.73;9.02;;;;;;;21.34;78.71;95182.56;5014326;28;20272;-79
2023/06/21 04:44:24;;;;;;;15.80;10.25;;;;;;;21.51;78.26;95184.94;5014140;28;20551;-79
2023/06/21 04:46:50;;;;;;;19.13;9.55;;;;;;;21.65;77.05;95177.94;5014093;28;20239;-79
2023/06/21 04:49:17;;;;;;;19.40;8.57;;;;;;;21.82;76.25;95187.28;5013875;28;20189;-80
2023/06/21 04:51:43;;;;;;;14.43;8.80;;;;;;;21.96;75.68;95184.81;5013829;28;20235;-80
2023/06/21 04:54:08;;;;;;;14.73;7.95;;;;;;;21.98;74.78;95149.72;5013831;28;20236;-80
2023/06/21 04:56:35;;;;;;;11.50;7.63;;;;;;;22.35;74.18;95173.41;5014047;28;20195;-79
2023/06/21 04:59:01;;;;;;;9.52;7.70;;;;;;;22.60;72.97;95181.31;5013781;28;20188;-81
2023/06/21 05:01:27;;;;;;;11.35;7.95;;;;;;;22.87;70.98;95197.81;5013744;28;20185;-81
2023/06/21 05:03:53;;;;;;;20.13;8.27;;;;;;;22.74;71.05;95149.28;5014194;28;20216;-80
2023/06/21 05:06:22;;;;;;;14.70;8.20;;;;;;;23.27;69.13;95195.88;5013363;28;20180;-79
2023/06/21 05:08:48;;;;;;;17.73;8.07;;;;;;;23.50;68.47;95187.13;5013143;28;20173;-79
2023/06/21 05:11:14;;;;;;;14.98;7.85;;;;;;;23.80;69.08;95163.69;5013546;28;20187;-79
2023/06/21 05:13:41;;;;;;;13.25;8.48;;;;;;;24.26;67.19;95186.31;5013830;28;20180;-79
2023/06/21 05:16:07;;;;;;;14.65;8.23;;;;;;;24.59;65.05;95189.09;5012372;28;20279;-80
2023/06/21 05:18:32;;;;;;;15.23;7.97;;;;;;;24.87;64.38;95193.53;5013774;28;20533;-80
2023/06/21 05:20:57;;;;;;;21.65;8.82;;;;;;;25.11;63.31;95190.78;5013527;28;20232;-80
2023/06/21 05:23:23;;;;;;;12.10;8.23;;;;;;;25.27;62.23;95167.88;5014004;28;20188;-81
2023/06/21 05:25:49;;;;;;;15.57;8.73;;;;;;;25.56;61.04;95186.53;5013955;28;20216;-81
2023/06/21 05:28:14;;;;;;;11.55;8.40;;;;;;;25.86;61.55;95190.56;5028830;28;20187;-82
2023/06/21 05:30:41;;;;;;;13.15;7.53;;;;;;;25.96;61.32;95141.81;5013168;28;20167;-81
2023/06/21 05:33:06;;;;;;;10.45;6.88;;;;;;;26.44;61.18;95177.31;5013251;28;20179;-81
2023/06/21 05:35:32;;;;;;;11.77;7.10;;;;;;;26.27;56.71;95161.72;5013260;28;20251;-81
2023/06/21 05:37:58;;;;;;;15.75;7.30;;;;;;;26.51;58.93;95136.38;5013799;28;20176;-81
2023/06/21 05:40:23;;;;;;;10.13;6.72;;;;;;;27.19;55.92;95182.09;5013967;28;20246;-81
2023/06/21 05:42:49;;;;;;;8.55;6.82;;;;;;;27.45;57.37;95176.06;5013674;28;20640;-81
2023/06/21 05:45:14;;;;;;;15.98;7.50;;;;;;;27.62;55.31;95166.16;5013610;28;20164;-82
2023/06/21 05:47:39;;;;;;;12.15;6.60;;;;;;;28.12;54.56;95179.44;5013767;28;20254;-81
2023/06/21 05:50:05;;;;;;;11.68;7.45;;;;;;;28.36;54.18;95182.59;5011249;28;20172;-81
2023/06/21 05:52:31;;;;;;;13.23;7.30;;;;;;;28.25;52.69;95156.09;5010746;28;20177;-81
2023/06/21 05:54:56;;;;;;;12.02;7.32;;;;;;;28.41;53.25;95170.78;5011258;28;20199;-81
2023/06/21 05:57:22;;;;;;;10.35;6.85;;;;;;;27.88;52.54;95173.59;5011415;28;20184;-81
2023/06/21 05:59:47;;;;;;;10.95;6.72;;;;;;;27.96;55.41;95175.56;5012591;28;20200;-81
2023/06/21 06:02:13;;;;;;;7.97;5.88;;;;;;;28.04;54.80;95161.25;5012590;28;20223;-82
2023/06/21 06:04:39;;;;;;;11.05;6.75;;;;;;;28.17;53.78;95163.09;5012793;28;20207;-81
2023/06/21 06:07:05;;;;;;;12.35;7.25;;;;;;;28.30;52.61;95169.47;5013718;28;20153;-83
2023/06/21 06:09:30;;;;;;;8.75;6.80;;;;;;;27.80;52.75;95137.28;5013194;28;20164;-82
2023/06/21 06:11:57;;;;;;;7.65;6.30;;;;;;;27.98;53.79;95143.56;5013191;28;20164;-84
2023/06/21 06:14:25;;;;;;;11.35;7.13;;;;;;;28.09;53.69;95158.41;5013187;28;20551;-83
2023/06/21 06:16:51;;;;;;;13.23;7.25;;;;;;;27.73;53.58;95156.69;5013348;28;20175;-86
2023/06/21 06:19:16;;;;;;;11.27;7.82;;;;;;;27.31;53.89;95149.09;5011122;28;20204;-84
2023/06/21 06:21:42;;;;;;;13.82;8.23;;;;;;;27.09;54.99;95155.31;5012465;28;20203;-84
2023/06/21 06:24:07;;;;;;;11.77;7.72;;;;;;;27.06;55.15;95157.84;5012234;28;20180;-83
2023/06/21 06:26:33;;;;;;;15.82;7.38;;;;;;;26.90;57.54;95119.50;5012940;28;20191;-81
2023/06/21 06:28:58;;;;;;;16.95;8.40;;;;;;;27.35;57.04;95158.97;5012934;28;20172;-81
2023/06/21 06:31:30;;;;;;;14.95;7.82;;;;;;;27.47;57.24;95155.72;5013164;28;20214;-81
2023/06/21 06:33:55;;;;;;;13.30;7.35;;;;;;;27.70;57.14;95148.38;5012796;28;20173;-82
2023/06/21 06:36:21;;;;;;;14.27;8.38;;;;;;;27.74;53.50;95133.94;5012490;28;20195;-79
2023/06/21 06:38:50;;;;;;;13.23;7.78;;;;;;;27.42;53.17;95129.59;5012337;28;20204;-77
2023/06/21 06:41:17;;;;;;;11.55;8.23;;;;;;;27.47;53.72;95155.72;5011834;28;20203;-78
2023/06/21 06:43:43;;;;;;;11.32;8.45;;;;;;;27.27;54.32;95143.50;5011807;28;20234;-79
2023/06/21 06:46:08;;;;;;;13.07;7.78;;;;;;;27.27;53.53;95151.63;5012069;28;20191;-83
2023/06/21 06:48:34;;;;;;;16.15;7.93;;;;;;;27.30;54.97;95139.38;5010855;28;20180;-83
2023/06/21 06:50:59;;;;;;;14.45;8.05;;;;;;;27.63;55.12;95156.94;5011793;28;20165;-82
2023/06/21 06:53:25;;;;;;;12.27;7.97;;;;;;;27.58;53.81;95119.22;5012393;28;20705;-83
2023/06/21 06:55:51;;;;;;;11.70;7.70;;;;;;;27.94;55.64;95153.41;5027719;28;20263;-82
2023/06/21 06:58:21;;;;;;;18.00;8.18;;;;;;;28.08;56.32;95154.91;5011116;28;20180;-81
2023/06/21 07:00:46;;;;;;;16.33;7.90;;;;;;;28.49;53.77;95165.38;5011252;28;20723;-81
2023/06/21 07:03:12;;;;;;;15.60;8.73;;;;;;;28.59;51.37;95155.38;5011618;28;20169;-80
2023/06/21 07:05:47;;;;;;;9.95;7.70;;;;;;;28.81;52.85;95150.63;5011950;28;20267;-81
2023/06/21 07:08:13;;;;;;;12.20;7.78;;;;;;;28.81;52.96;95134.34;5009314;28;20226;-81
2023/06/21 07:10:39;;;;;;;11.68;7.18;;;;;;;28.86;50.82;95146.97;5007681;28;20168;-81
2023/06/21 07:13:05;;;;;;;13.63;7.90;;;;;;;28.96;52.27;95148.56;5007868;28;20226;-81
2023/06/21 07:15:31;;;;;;;17.20;7.78;;;;;;;29.12;52.66;95147.75;5007876;28;20176;-81
2023/06/21 07:17:56;;;;;;;15.70;7.40;;;;;;;29.27;54.31;95151.88;5008140;28;20168;-81
2023/06/21 07:20:22;;;;;;;10.90;7.45;;;;;;;29.46;50.32;95149.63;5024091;28;20196;-81
2023/06/21 07:22:47;;;;;;;11.88;7.15;;;;;;;29.52;50.22;95142.91;5009075;28;20180;-81
2023/06/21 07:25:14;;;;;;;10.85;7.63;;;;;;;29.38;50.52;95107.03;5009505;28;20176;-81
2023/06/21 07:27:40;;;;;;;11.98;7.50;;;;;;;29.21;50.46;95104.34;5009704;28;20549;-81
2023/06/21 07:30:06;;;;;;;12.38;8.40;;;;;;;29.02;48.88;95084.91;5009436;28;20175;-80
2023/06/21 07:32:33;;;;;;;10.55;8.10;;;;;;;28.48;53.01;95090.63;5009092;28;20176;-81
2023/06/21 07:34:58;;;;;;;10.50;8.00;;;;;;;28.67;51.18;95113.91;5009299;28;20180;-81
2023/06/21 07:37:27;;;;;;;11.70;8.45;;;;;;;28.73;50.74;95118.84;5009284;28;20203;-80
2023/06/21 07:39:52;;;;;;;12.75;8.35;;;;;;;29.05;50.18;95143.94;5008998;28;20700;-81
2023/06/21 07:42:17;;;;;;;16.92;7.85;;;;;;;29.08;52.13;95105.31;5009448;28;20229;-82
2023/06/21 07:44:43;;;;;;;11.38;7.32;;;;;;;29.51;51.60;95135.88;5009073;28;20181;-81
2023/06/21 07:47:08;;;;;;;14.82;8.80;;;;;;;29.23;49.41;95124.56;5009298;28;20172;-81
2023/06/21 07:49:34;;;;;;;16.35;8.43;;;;;;;29.22;52.29;95130.34;5008976;28;20570;-81
2023/06/21 07:51:59;;;;;;;11.82;7.40;;;;;;;29.59;53.52;95135.06;5009457;28;20168;-81
2023/06/21 07:54:24;;;;;;;13.77;7.53;;;;;;;29.75;54.18;95083.72;5008831;28;20760;-81
2023/06/21 07:56:50;;;;;;;14.55;8.30;;;;;;;30.05;50.14;95110.94;5009095;28;20256;-81
2023/06/21 07:59:15;;;;;;;20.83;8.02;;;;;;;30.12;53.97;95108.50;5008909;28;20251;-81
2023/06/21 08:01:41;;;;;;;13.50;7.20;;;;;;;30.42;51.59;95110.09;5010931;28;20177;-81
2023/06/21 08:04:06;;;;;;;9.85;6.82;;;;;;;30.57;51.49;95108.72;5012642;28;20187;-80
2023/06/21 08:06:31;;;;;;;13.48;7.55;;;;;;;30.74;49.37;95122.19;5012627;28;20630;-81
2023/06/21 08:08:57;;;;;;;11.77;7.43;;;;;;;30.62;49.26;95097.66;5012640;28;20176;-82
2023/06/21 08:11:22;;;;;;;12.35;7.20;;;;;;;30.61;51.55;95123.28;5012423;28;20177;-81
2023/06/21 08:13:47;;;;;;;9.25;7.47;;;;;;;30.53;49.50;95077.91;5012570;28;20665;-82
2023/06/21 08:16:13;;;;;;;11.95;8.25;;;;;;;30.62;48.29;95089.50;5012186;28;20180;-81
2023/06/21 08:18:38;;;;;;;14.45;7.47;;;;;;;30.56;47.63;95118.00;5012324;28;20263;-81
2023/06/21 08:21:05;;;;;;;10.98;7.68;;;;;;;30.07;49.54;95098.63;5012024;28;20211;-82
2023/06/21 08:23:31;;;;;;;9.82;7.10;;;;;;;29.93;50.96;95082.53;5012457;28;20179;-82
2023/06/21 08:25:57;;;;;;;14.15;7.05;;;;;;;30.45;53.09;95114.06;5012015;28;20666;-82
2023/06/21 08:28:22;;;;;;;10.00;7.38;;;;;;;30.67;53.66;95116.50;5012214;28;20177;-82
2023/06/21 08:30:47;;;;;;;11.02;7.47;;;;;;;30.60;49.25;95073.53;5012144;28;20165;-82
2023/06/21 08:33:13;;;;;;;10.40;8.23;;;;;;;30.54;48.46;95120.25;5010644;28;20203;-81
2023/06/21 08:35:38;;;;;;;15.45;7.47;;;;;;;30.35;50.42;95121.50;5012042;28;20168;-82
2023/06/21 08:38:04;;;;;;;9.10;7.65;;;;;;;30.32;53.82;95086.81;5011734;28;20199;-82
2023/06/21 08:40:31;;;;;;;9.18;7.55;;;;;;;30.84;53.26;95108.19;5010981;28;20200;-82
2023/06/21 08:42:57;;;;;;;8.48;7.07;;;;;;;30.96;49.68;95102.03;5011907;28;20176;-82
2023/06/21 08:45:22;;;;;;;11.73;7.20;;;;;;;30.77;48.60;95091.63;5010826;28;20185;-82
2023/06/21 08:47:49;;;;;;;10.68;7.35;;;;;;;30.49;49.20;95072.31;5010482;28;20179;-82
2023/06/21 08:50:17;;;;;;;10.38;7.13;;;;;;;30.82;51.91;95107.72;5011938;28;20649;-82
2023/06/21 08:52:45;;;;;;;12.15;7.43;;;;;;;31.05;52.42;95100.78;5011478;28;20703;-82
2023/06/21 08:55:14;;;;;;;12.48;7.40;;;;;;;31.32;53.10;95099.44;5012055;28;20598;-82
2023/06/21 08:57:46;;;;;;;15.60;6.82;;;;;;;31.56;51.14;95109.59;5010246;28;20188;-82
2023/06/21 09:00:16;;;;;;;10.88;7.32;;;;;;;31.61;49.18;95106.66;5011497;28;20272;-82
2023/06/21 09:03:00;;;;;;;8.98;7.00;;;;;;;31.65;48.96;95102.16;5010303;28;20177;-82
2023/06/21 09:05:45;;;;;;;13.77;6.70;;;;;;;31.13;47.96;95103.81;5011427;28;20172;-82
2023/06/21 09:08:14;;;;;;;10.18;7.00;;;;;;;31.13;47.97;95099.19;5010897;28;20318;-82
2023/06/21 09:10:41;;;;;;;8.05;6.70;;;;;;;31.25;50.31;95091.03;5011341;28;20180;-82
2023/06/21 09:13:08;;;;;;;12.13;7.75;;;;;;;31.20;49.94;95085.81;5010494;28;20172;-82
2023/06/21 09:15:34;;;;;;;8.55;6.68;;;;;;;31.15;48.06;95098.81;5011289;28;20211;-82
2023/06/21 09:18:01;;;;;;;11.43;6.55;;;;;;;31.29;48.93;95102.06;5011196;28;20200;-82
2023/06/21 09:20:28;;;;;;;7.35;6.55;;;;;;;30.94;45.09;95096.91;5011288;28;20203;-82
2023/06/21 09:22:57;;;;;;;15.38;7.32;;;;;;;30.43;45.80;95098.09;5011315;28;20171;-82
2023/06/21 09:25:23;;;;;;;10.82;7.03;;;;;;;29.94;50.34;95069.78;5010057;28;20173;-81
2023/06/21 09:27:48;;;;;;;10.05;6.50;;;;;;;29.74;48.95;95073.22;5010944;28;20174;-82
2023/06/21 09:30:14;;;;;;;7.85;6.00;;;;;;;30.00;49.06;95106.50;5011189;28;20184;-82
2023/06/21 09:32:41;;;;;;;9.02;6.88;;;;;;;29.92;52.48;95070.09;5010902;28;20181;-82
2023/06/21 09:35:07;;;;;;;8.85;5.85;;;;;;;30.26;51.44;95101.72;5011213;28;20240;-82
2023/06/21 09:37:34;;;;;;;8.63;6.10;;;;;;;30.35;47.52;95078.00;5011061;28;20176;-82
2023/06/21 09:39:59;;;;;;;6.22;5.63;;;;;;;30.52;50.36;95096.16;5011035;28;20223;-82
2023/06/21 09:42:28;;;;;;;6.72;5.50;;;;;;;30.27;43.46;95059.06;5011271;28;20677;-82
2023/06/21 09:44:53;;;;;;;6.63;5.57;;;;;;;30.48;46.86;95088.94;5010845;28;20271;-82
2023/06/21 09:47:20;;;;;;;7.40;5.15;;;;;;;30.21;45.79;95050.28;5011409;28;20937;-82
2023/06/21 09:49:46;;;;;;;7.53;5.10;;;;;;;30.49;40.87;95094.06;5010909;28;20172;-82
2023/06/21 09:52:17;;;;;;;5.97;5.35;;;;;;;30.26;44.27;95085.44;5009831;28;20184;-82
2023/06/21 09:54:44;;;;;;;6.85;5.18;;;;;;;30.25;49.92;95091.97;5010617;28;20187;-82
2023/06/21 09:57:10;;;;;;;7.38;5.07;;;;;;;30.30;51.22;95097.22;5010770;28;20773;-82
2023/06/21 09:59:37;;;;;;;9.23;4.82;;;;;;;30.32;42.81;95100.41;5011718;28;20279;-81
2023/06/21 10:02:02;;;;;;;6.63;4.70;;;;;;;30.27;45.28;95083.50;5011454;28;20259;-81
2023/06/21 10:04:28;;;;;;;5.72;5.13;;;;;;;30.36;43.79;95092.38;5012670;28;21099;-81
2023/06/21 10:06:56;;;;;;;8.38;5.32;;;;;;;30.36;46.98;95090.44;5013000;28;20152;-82
2023/06/21 10:09:22;;;;;;;6.72;5.30;;;;;;;30.10;48.13;95094.47;5011399;28;20206;-82
2023/06/21 10:11:54;;;;;;;7.00;5.13;;;;;;;30.14;48.69;95087.25;5010933;28;20195;-82
2023/06/21 10:14:25;;;;;;;8.13;5.50;;;;;;;30.05;48.59;95068.28;5011587;28;20564;-80
2023/06/21 10:16:54;;;;;;;6.75;5.07;;;;;;;30.22;47.38;95084.47;5011034;28;20172;-80
2023/06/21 10:19:31;;;;;;;10.45;5.97;;;;;;;30.31;45.85;95096.09;5027649;28;20196;-80
2023/06/21 10:22:17;;;;;;;7.15;5.32;;;;;;;30.33;49.22;95093.03;5012412;28;20204;-78
2023/06/21 10:24:47;;;;;;;5.13;4.50;;;;;;;30.05;41.23;95091.94;5011763;28;20653;-79
2023/06/21 10:27:15;;;;;;;5.90;4.97;;;;;;;29.66;40.76;95093.06;5012416;28;20986;-79
2023/06/21 10:29:43;;;;;;;6.10;5.07;;;;;;;29.53;47.20;95082.09;5012373;28;20895;-79
2023/06/21 10:32:09;;;;;;;7.93;5.32;;;;;;;29.55;46.11;95088.00;5008991;28;20254;-80
2023/06/21 10:34:49;;;;;;;11.45;5.60;;;;;;;29.63;47.33;95092.59;5008903;28;20271;-80
2023/06/21 10:37:24;;;;;;;6.78;5.07;;;;;;;29.68;42.22;95086.16;5008899;28;20177;-80
2023/06/21 10:39:54;;;;;;;5.78;4.78;;;;;;;29.61;42.96;95094.03;5010193;28;20215;-83
2023/06/21 10:42:22;;;;;;;6.60;5.90;;;;;;;29.35;42.99;95088.66;5010203;28;20188;-81
2023/06/21 10:44:50;;;;;;;6.70;5.60;;;;;;;28.85;42.83;95064.84;5012049;28;20176;-80
2023/06/21 10:47:16;;;;;;;6.30;5.55;;;;;;;28.86;44.79;95090.03;5008540;28;20379;-80
2023/06/21 10:49:43;;;;;;;6.55;5.40;;;;;;;28.76;46.16;95074.88;5010588;28;20626;-80
2023/06/21 10:52:09;;;;;;;7.78;6.07;;;;;;;29.06;50.41;95102.91;5011930;28;20198;-80
2023/06/21 10:54:35;;;;;;;7.63;6.03;;;;;;;29.16;50.54;95082.78;5010752;28;20232;-80
2023/06/21 10:57:01;;;;;;;8.52;5.97;;;;;;;29.33;48.92;95090.88;5011669;28;20184;-81
2023/06/21 10:59:27;;;;;;;8.60;6.07;;;;;;;29.34;49.56;95081.63;5011428;28;20211;-82
2023/06/21 11:01:54;;;;;;;7.38;5.32;;;;;;;29.44;48.92;95084.03;5011321;28;20175;-81
2023/06/21 11:04:20;;;;;;;6.85;5.68;;;;;;;29.54;49.89;95085.59;5008785;28;20180;-81
2023/06/21 11:06:45;;;;;;;8.70;6.05;;;;;;;29.58;47.27;95086.53;5009919;28;20192;-81
2023/06/21 11:09:12;;;;;;;7.38;6.22;;;;;;;29.56;51.62;95081.44;5008756;28;20234;-81
2023/06/21 11:11:48;;;;;;;9.65;6.03;;;;;;;29.67;50.57;95081.06;5011482;28;20708;-80
2023/06/21 11:14:13;;;;;;;6.63;5.57;;;;;;;29.59;45.39;95080.78;5009911;28;20184;-80
2023/06/21 11:16:39;;;;;;;10.02;6.55;;;;;;;29.32;47.74;95067.59;5010298;28;20184;-80
2023/06/21 11:19:10;;;;;;;11.73;6.22;;;;;;;29.31;48.17;95074.16;5011480;28;20177;-80
2023/06/21 11:21:41;;;;;;;14.80;6.38;;;;;;;29.38;49.24;95076.41;5011524;28;20685;-79
2023/06/21 11:24:17;;;;;;;8.57;5.63;;;;;;;29.31;48.71;95078.78;5011420;28;20191;-80
2023/06/21 11:27:03;;;;;;;7.50;6.00;;;;;;;29.44;50.88;95083.22;5011330;28;20255;-80